createdAt,value
2023-08-16T00:02:10.378Z,8.30
2023-08-16T00:04:37.938Z,7.45
2023-08-16T00:07:05.887Z,8.07
2023-08-16T00:09:34.838Z,8.07
2023-08-16T00:12:02.695Z,8.50
2023-08-16T00:14:30.061Z,8.48
2023-08-16T00:16:57.956Z,7.65
2023-08-16T00:19:25.394Z,9.82
2023-08-16T00:21:53.189Z,8.70
2023-08-16T00:24:20.679Z,7.82
2023-08-16T00:26:49.883Z,9.43
2023-08-16T00:29:17.198Z,11.35
2023-08-16T00:31:44.934Z,13.68
2023-08-16T00:34:12.515Z,11.52
2023-08-16T00:36:40.236Z,11.70
2023-08-16T00:39:07.896Z,9.15
2023-08-16T00:41:35.677Z,9.13
2023-08-16T00:44:05.205Z,10.70
2023-08-16T00:46:33.334Z,10.57
2023-08-16T00:49:00.938Z,8.07
2023-08-16T00:51:28.778Z,7.82
2023-08-16T00:53:56.209Z,10.07
2023-08-16T00:56:23.911Z,11.05
2023-08-16T00:58:51.390Z,7.78
2023-08-16T01:01:22.947Z,8.13
2023-08-16T01:03:50.762Z,9.48
2023-08-16T01:06:18.685Z,7.95
2023-08-16T01:08:46.106Z,7.65
2023-08-16T01:11:18.981Z,8.95
2023-08-16T01:13:55.769Z,8.95
2023-08-16T01:16:30.331Z,11.57
2023-08-16T01:18:58.407Z,9.57
2023-08-16T01:21:27.557Z,9.32
2023-08-16T01:24:05.945Z,9.60
2023-08-16T01:26:45.492Z,10.13
2023-08-16T01:29:13.696Z,7.50
2023-08-16T01:31:41.664Z,13.60
2023-08-16T01:34:09.107Z,10.48
2023-08-16T01:36:36.922Z,12.55
2023-08-16T01:39:04.571Z,8.88
2023-08-16T01:41:36.980Z,8.70
2023-08-16T01:44:12.113Z,7.93
2023-08-16T01:46:41.582Z,9.70
2023-08-16T01:49:10.547Z,9.70
2023-08-16T01:51:38.382Z,10.43
2023-08-16T01:54:06.476Z,7.82
2023-08-16T01:56:34.251Z,9.43
2023-08-16T01:59:01.700Z,11.07
2023-08-16T02:01:35.179Z,11.55
2023-08-16T02:04:02.659Z,10.15
2023-08-16T02:06:30.473Z,12.50
2023-08-16T02:08:57.892Z,14.95
2023-08-16T02:11:25.788Z,9.35
2023-08-16T02:13:53.143Z,18.17
2023-08-16T02:16:20.952Z,13.68
2023-08-16T02:18:49.968Z,13.98
2023-08-16T02:21:17.945Z,14.50
2023-08-16T02:23:45.357Z,14.48
2023-08-16T02:26:13.138Z,18.58
2023-08-16T02:28:40.496Z,14.50
2023-08-16T02:31:08.724Z,15.23
2023-08-16T02:33:36.187Z,17.17
2023-08-16T02:36:09.145Z,14.93
2023-08-16T02:38:36.451Z,13.77
2023-08-16T02:41:04.200Z,11.20
2023-08-16T02:43:31.572Z,13.50
2023-08-16T02:46:03.998Z,9.95
2023-08-16T02:48:31.833Z,13.13
2023-08-16T02:50:59.573Z,11.27
2023-08-16T02:53:33.184Z,13.27
2023-08-16T02:56:00.961Z,16.60
2023-08-16T02:58:28.427Z,12.73
2023-08-16T03:00:56.185Z,12.15
2023-08-16T03:03:23.970Z,10.65
2023-08-16T03:05:51.883Z,9.05
2023-08-16T03:08:19.273Z,10.50
2023-08-16T03:10:48.594Z,15.48
2023-08-16T03:13:15.951Z,9.95
2023-08-16T03:15:43.973Z,9.15
2023-08-16T03:18:11.405Z,15.38
2023-08-16T03:20:39.185Z,12.45
2023-08-16T03:23:06.642Z,12.68
2023-08-16T03:25:34.472Z,14.05
2023-08-16T03:28:07.207Z,12.40
2023-08-16T03:30:35.087Z,11.75
2023-08-16T03:33:02.640Z,12.18
2023-08-16T03:35:30.427Z,11.93
2023-08-16T03:37:57.672Z,10.80
2023-08-16T03:40:25.567Z,11.80
2023-08-16T03:42:53.073Z,12.30
2023-08-16T03:45:22.200Z,8.15
2023-08-16T03:47:49.624Z,10.48
2023-08-16T03:50:17.866Z,11.23
2023-08-16T03:52:46.266Z,9.98
2023-08-16T03:55:14.031Z,11.23
2023-08-16T03:57:41.466Z,15.05
2023-08-16T04:00:10.048Z,8.60
2023-08-16T04:02:39.059Z,11.20
2023-08-16T04:05:11.979Z,10.32
2023-08-16T04:07:39.994Z,13.10
2023-08-16T04:10:08.503Z,14.70
2023-08-16T04:12:36.094Z,14.55
2023-08-16T04:15:04.203Z,11.15
2023-08-16T04:17:31.726Z,11.23
2023-08-16T04:20:00.949Z,11.30
2023-08-16T04:22:28.356Z,13.52
2023-08-16T04:24:56.222Z,12.27
2023-08-16T04:27:23.829Z,13.50
2023-08-16T04:29:51.840Z,13.30
2023-08-16T04:32:19.259Z,14.50
2023-08-16T04:34:47.041Z,13.88
2023-08-16T04:37:15.882Z,11.88
2023-08-16T04:39:43.672Z,11.15
2023-08-16T04:42:11.152Z,11.63
2023-08-16T04:44:38.912Z,11.48
2023-08-16T04:47:08.819Z,12.55
2023-08-16T04:49:36.861Z,14.73
2023-08-16T04:52:04.973Z,13.60
2023-08-16T04:54:34.056Z,13.00
2023-08-16T04:57:01.501Z,13.55
2023-08-16T04:59:29.238Z,10.13
2023-08-16T05:01:56.655Z,10.15
2023-08-16T05:04:29.016Z,12.57
2023-08-16T05:06:56.459Z,10.73
2023-08-16T05:09:24.334Z,10.32
2023-08-16T05:11:57.150Z,11.48
2023-08-16T05:14:25.002Z,11.40
2023-08-16T05:16:52.465Z,11.10
2023-08-16T05:19:20.366Z,10.27
2023-08-16T05:21:47.771Z,13.13
2023-08-16T05:24:20.034Z,12.38
2023-08-16T05:26:47.469Z,10.65
2023-08-16T05:29:20.098Z,10.82
2023-08-16T05:31:47.489Z,12.88
2023-08-16T05:34:15.302Z,11.07
2023-08-16T05:36:47.237Z,14.55
2023-08-16T05:39:19.102Z,12.60
2023-08-16T05:41:46.379Z,11.05
2023-08-16T05:44:14.196Z,10.65
2023-08-16T05:46:43.116Z,13.35
2023-08-16T05:49:11.650Z,11.30
2023-08-16T05:51:39.053Z,11.18
2023-08-16T05:54:06.984Z,10.88
2023-08-16T05:56:34.318Z,9.60
2023-08-16T05:59:02.198Z,11.32
2023-08-16T06:01:29.712Z,12.45
2023-08-16T06:04:03.263Z,13.10
2023-08-16T06:06:30.764Z,17.02
2023-08-16T06:08:58.591Z,10.05
2023-08-16T06:11:26.062Z,10.95
2023-08-16T06:13:54.012Z,10.70
2023-08-16T06:16:21.510Z,9.27
2023-08-16T06:18:49.254Z,11.15
2023-08-16T06:21:23.551Z,9.80
2023-08-16T06:23:54.642Z,11.85
2023-08-16T06:26:28.080Z,11.32
2023-08-16T06:28:55.963Z,10.88
2023-08-16T06:31:23.394Z,9.60
2023-08-16T06:33:51.205Z,9.55
2023-08-16T06:36:24.114Z,8.45
2023-08-16T06:38:51.809Z,10.85
2023-08-16T06:41:19.100Z,10.02
2023-08-16T06:43:46.939Z,9.43
2023-08-16T06:46:14.563Z,8.48
2023-08-16T06:48:42.465Z,9.00
2023-08-16T06:51:09.938Z,9.15
2023-08-16T06:53:39.142Z,9.70
2023-08-16T06:56:06.549Z,9.20
2023-08-16T06:58:34.324Z,9.10
2023-08-16T07:01:02.020Z,10.45
2023-08-16T07:03:30.015Z,10.93
2023-08-16T07:06:00.328Z,10.52
2023-08-16T07:08:29.671Z,11.50
2023-08-16T07:10:58.607Z,8.07
2023-08-16T07:13:26.444Z,13.18
2023-08-16T07:15:53.872Z,9.15
2023-08-16T07:18:21.818Z,9.32
2023-08-16T07:20:49.263Z,9.23
2023-08-16T07:23:17.211Z,9.23
2023-08-16T07:25:44.681Z,8.88
2023-08-16T07:28:13.966Z,9.77
2023-08-16T07:30:41.391Z,9.98
2023-08-16T07:33:09.276Z,10.45
2023-08-16T07:35:36.816Z,8.95
2023-08-16T07:38:05.027Z,8.75
2023-08-16T07:40:32.962Z,7.95
2023-08-16T07:43:00.967Z,9.45
2023-08-16T07:45:29.993Z,10.50
2023-08-16T07:47:57.820Z,9.43
2023-08-16T07:50:25.380Z,9.13
2023-08-16T07:52:53.230Z,8.45
2023-08-16T07:55:24.153Z,9.23
2023-08-16T07:57:52.038Z,9.38
2023-08-16T08:00:19.592Z,8.35
2023-08-16T08:03:00.182Z,8.68
2023-08-16T08:05:28.128Z,8.40
2023-08-16T08:07:56.131Z,9.85
2023-08-16T08:10:23.786Z,9.10
2023-08-16T08:12:51.672Z,8.25
2023-08-16T08:15:21.874Z,9.82
2023-08-16T08:17:49.760Z,9.98
2023-08-16T08:20:22.132Z,8.18
2023-08-16T08:22:50.041Z,8.07
2023-08-16T08:25:17.774Z,10.90
2023-08-16T08:27:45.653Z,8.73
2023-08-16T08:30:13.874Z,9.00
2023-08-16T08:32:41.635Z,8.75
2023-08-16T08:35:09.551Z,9.23
2023-08-16T08:37:43.132Z,7.68
2023-08-16T08:40:10.891Z,9.95
2023-08-16T08:42:40.813Z,8.52
2023-08-16T08:45:09.843Z,13.85
2023-08-16T08:47:39.059Z,10.27
2023-08-16T08:50:07.837Z,9.25
2023-08-16T08:52:35.788Z,9.63
2023-08-16T08:55:09.879Z,8.85
2023-08-16T08:57:38.357Z,7.72
2023-08-16T09:00:07.405Z,8.43
2023-08-16T09:02:37.518Z,9.23
2023-08-16T09:05:08.082Z,7.57
2023-08-16T09:10:11.212Z,9.80
2023-08-16T09:12:39.410Z,8.60
2023-08-16T09:15:09.123Z,9.02
2023-08-16T09:17:37.591Z,8.52
2023-08-16T09:20:05.970Z,9.68
2023-08-16T09:22:33.753Z,8.45
2023-08-16T09:25:03.571Z,7.78
2023-08-16T09:27:32.930Z,10.20
2023-08-16T09:30:00.456Z,8.30
2023-08-16T09:32:30.480Z,7.07
2023-08-16T09:35:00.181Z,8.32
2023-08-16T09:37:31.962Z,8.00
2023-08-16T09:39:59.881Z,7.65
2023-08-16T09:42:35.454Z,10.52
2023-08-16T09:45:03.543Z,7.30
2023-08-16T09:47:59.424Z,7.85
2023-08-16T09:50:28.832Z,7.38
2023-08-16T09:52:57.844Z,7.05
2023-08-16T09:55:30.827Z,7.75
2023-08-16T09:58:04.448Z,7.80
2023-08-16T10:00:31.896Z,8.50
2023-08-16T10:02:59.787Z,9.02
2023-08-16T10:05:28.619Z,9.02
2023-08-16T10:08:14.538Z,11.40
2023-08-16T10:10:42.796Z,9.27
2023-08-16T10:13:13.272Z,8.27
2023-08-16T10:15:43.723Z,8.88
2023-08-16T10:18:13.957Z,11.68
2023-08-16T10:20:45.729Z,10.85
2023-08-16T10:23:19.735Z,8.65
2023-08-16T10:25:50.084Z,8.13
2023-08-16T10:28:23.068Z,7.22
2023-08-16T10:33:33.819Z,7.93
2023-08-16T10:36:07.502Z,10.90
2023-08-16T10:38:38.054Z,6.70
2023-08-16T10:41:14.037Z,9.40
2023-08-16T10:43:50.704Z,8.80
2023-08-16T10:46:28.654Z,7.93
2023-08-16T10:48:59.685Z,10.65
2023-08-16T10:51:29.960Z,6.43
2023-08-16T10:54:02.218Z,6.07
2023-08-16T10:56:37.493Z,7.28
2023-08-16T10:59:12.202Z,6.80
2023-08-16T11:01:46.963Z,11.30
2023-08-16T11:04:15.348Z,8.45
2023-08-16T11:06:55.801Z,10.73
2023-08-16T11:09:29.894Z,6.47
2023-08-16T11:12:02.040Z,8.23
2023-08-16T11:14:31.432Z,7.05
2023-08-16T11:16:58.885Z,6.70
2023-08-16T11:19:26.974Z,10.55
2023-08-16T11:22:01.816Z,9.90
2023-08-16T11:24:30.139Z,6.97
2023-08-16T11:26:57.646Z,8.10
2023-08-16T11:29:25.473Z,10.82
2023-08-16T11:32:03.528Z,7.55
2023-08-16T11:34:32.806Z,6.88
2023-08-16T11:37:00.268Z,8.20
2023-08-16T11:39:28.143Z,8.52
2023-08-16T11:41:59.500Z,8.15
2023-08-16T11:44:42.494Z,6.80
2023-08-16T11:47:18.501Z,7.60
2023-08-16T11:49:53.500Z,8.50
2023-08-16T11:52:21.906Z,12.93
2023-08-16T11:55:08.560Z,7.20
2023-08-16T11:57:44.299Z,8.02
2023-08-16T12:00:27.504Z,7.70
2023-08-16T12:03:02.979Z,6.75
2023-08-16T12:05:35.045Z,8.32
2023-08-16T12:08:10.538Z,9.68
2023-08-16T12:10:38.572Z,7.38
2023-08-16T12:13:13.150Z,7.35
2023-08-16T12:15:41.776Z,7.90
2023-08-16T12:18:14.421Z,10.50
2023-08-16T12:20:44.882Z,8.25
2023-08-16T12:23:12.645Z,8.27
2023-08-16T12:25:40.788Z,7.82
2023-08-16T12:28:08.281Z,7.32
2023-08-16T12:30:41.220Z,9.98
2023-08-16T12:33:13.825Z,10.48
2023-08-16T12:35:42.722Z,6.65
2023-08-16T12:38:10.440Z,7.18
2023-08-16T12:40:38.356Z,10.98
2023-08-16T12:45:38.599Z,7.70
2023-08-16T12:48:15.005Z,9.40
2023-08-16T12:50:43.172Z,8.40
2023-08-16T12:55:43.011Z,7.43
2023-08-16T12:58:21.401Z,8.93
2023-08-16T13:00:49.605Z,8.68
2023-08-16T13:03:32.188Z,7.85
2023-08-16T13:08:32.229Z,7.20
2023-08-16T13:11:09.677Z,8.25
2023-08-16T13:13:43.653Z,7.82
2023-08-16T13:16:12.734Z,8.68
2023-08-16T13:18:46.368Z,8.52
2023-08-16T13:21:20.161Z,8.82
2023-08-16T13:24:05.234Z,8.77
2023-08-16T13:26:40.176Z,8.20
2023-08-16T13:29:24.561Z,9.88
2023-08-16T13:32:01.230Z,10.88
2023-08-16T13:37:04.881Z,10.13
2023-08-16T13:40:01.770Z,8.30
2023-08-16T13:47:31.651Z,8.70
2023-08-16T13:50:00.568Z,9.60
2023-08-16T13:52:33.142Z,8.63
2023-08-16T13:55:00.607Z,8.75
2023-08-16T13:57:28.529Z,8.40
2023-08-16T13:59:56.221Z,7.57
2023-08-16T14:02:30.481Z,9.80
2023-08-16T14:04:58.156Z,7.90
2023-08-16T14:07:31.263Z,7.85
2023-08-16T14:10:00.471Z,11.25
2023-08-16T14:12:28.262Z,7.97
2023-08-16T14:14:55.718Z,8.63
2023-08-16T14:17:23.553Z,11.43
2023-08-16T14:19:51.011Z,8.95
2023-08-16T14:22:18.865Z,8.45
2023-08-16T14:24:47.828Z,10.20
2023-08-16T14:27:15.748Z,8.85
2023-08-16T14:29:43.292Z,8.68
2023-08-16T14:32:11.152Z,8.68
2023-08-16T14:34:38.594Z,10.15
2023-08-16T14:37:06.564Z,14.35
2023-08-16T14:39:33.956Z,9.95
2023-08-16T14:42:03.369Z,14.43
2023-08-16T14:44:30.861Z,10.13
2023-08-16T14:46:58.908Z,8.02
2023-08-16T14:49:26.507Z,9.23
2023-08-16T14:51:54.604Z,7.40
2023-08-16T14:54:22.099Z,8.30
2023-08-16T14:56:49.955Z,11.10
2023-08-16T14:59:23.217Z,9.45
2023-08-16T15:01:51.020Z,8.27
2023-08-16T15:04:18.485Z,7.68
2023-08-16T15:06:46.397Z,9.60
2023-08-16T15:09:13.943Z,7.72
2023-08-16T15:11:41.936Z,7.43
2023-08-16T15:14:09.378Z,7.30
2023-08-16T15:16:38.600Z,7.38
2023-08-16T15:19:06.034Z,9.88
2023-08-16T15:21:33.951Z,8.65
2023-08-16T15:24:01.470Z,8.50
2023-08-16T15:26:29.334Z,7.78
2023-08-16T15:28:56.744Z,10.82
2023-08-16T15:31:24.871Z,9.07
2023-08-16T15:33:53.671Z,8.57
2023-08-16T15:36:21.480Z,10.32
2023-08-16T15:38:52.316Z,8.25
2023-08-16T15:41:20.997Z,7.90
2023-08-16T15:43:48.529Z,9.00
2023-08-16T15:46:16.537Z,8.60
2023-08-16T15:48:44.101Z,8.55
2023-08-16T15:51:13.399Z,8.50
2023-08-16T15:53:41.010Z,8.32
2023-08-16T15:56:08.862Z,10.07
2023-08-16T15:58:36.212Z,7.63
2023-08-16T16:01:05.467Z,8.38
2023-08-16T16:03:33.194Z,9.65
2023-08-16T16:06:01.132Z,9.23
2023-08-16T16:08:30.872Z,11.43
2023-08-16T16:10:58.797Z,8.23
2023-08-16T16:13:26.294Z,10.30
2023-08-16T16:15:54.337Z,7.63
2023-08-16T16:18:22.409Z,11.95
2023-08-16T16:20:50.350Z,10.20
2023-08-16T16:23:17.840Z,7.80
2023-08-16T16:25:51.070Z,8.05
2023-08-16T16:28:18.484Z,9.38
2023-08-16T16:30:46.409Z,8.48
2023-08-16T16:33:13.767Z,9.38
2023-08-16T16:35:41.679Z,7.47
2023-08-16T16:38:09.143Z,9.15
2023-08-16T16:40:36.941Z,9.48
2023-08-16T16:43:10.208Z,9.70
2023-08-16T16:45:38.002Z,8.18
2023-08-16T16:48:06.153Z,9.55
2023-08-16T16:50:34.081Z,8.13
2023-08-16T16:53:01.481Z,9.77
2023-08-16T16:55:29.263Z,10.02
2023-08-16T16:57:56.764Z,7.97
2023-08-16T17:00:30.131Z,10.38
2023-08-16T17:02:57.510Z,7.53
2023-08-16T17:05:25.318Z,7.93
2023-08-16T17:07:52.841Z,8.82
2023-08-16T17:10:20.630Z,10.27
2023-08-16T17:12:48.145Z,7.80
2023-08-16T17:15:16.062Z,9.52
2023-08-16T17:17:47.451Z,9.38
2023-08-16T17:20:15.612Z,9.77
2023-08-16T17:22:43.016Z,9.10
2023-08-16T17:25:11.671Z,7.63
2023-08-16T17:27:39.175Z,8.77
2023-08-16T17:30:08.753Z,10.18
2023-08-16T17:32:36.268Z,11.57
2023-08-16T17:35:05.634Z,7.57
2023-08-16T17:37:33.599Z,10.52
2023-08-16T17:40:01.012Z,8.45
2023-08-16T17:42:28.849Z,7.95
2023-08-16T17:44:56.270Z,8.48
2023-08-16T17:47:24.362Z,12.18
2023-08-16T17:49:52.113Z,9.60
2023-08-16T17:52:21.388Z,8.05
2023-08-16T17:54:48.852Z,9.70
2023-08-16T17:57:21.043Z,7.63
2023-08-16T17:59:48.560Z,9.23
2023-08-16T18:02:16.573Z,9.45
2023-08-16T18:04:44.107Z,7.43
2023-08-16T18:07:25.501Z,8.65
2023-08-16T18:09:53.240Z,8.30
2023-08-16T18:12:23.507Z,9.57
2023-08-16T18:14:54.006Z,8.30
2023-08-16T18:17:22.436Z,8.10
2023-08-16T18:19:49.961Z,11.20
2023-08-16T18:22:18.171Z,9.18
2023-08-16T18:24:47.111Z,13.38
2023-08-16T18:27:19.098Z,8.52
2023-08-16T18:29:46.633Z,8.75
2023-08-16T18:32:14.592Z,10.88
2023-08-16T18:34:42.036Z,8.27
2023-08-16T18:37:14.208Z,9.68
2023-08-16T18:39:41.930Z,11.18
2023-08-16T18:42:11.103Z,8.50
2023-08-16T18:44:38.702Z,11.68
2023-08-16T18:47:06.906Z,10.70
2023-08-16T18:49:34.334Z,8.90
2023-08-16T18:52:05.517Z,10.57
2023-08-16T18:54:33.115Z,8.20
2023-08-16T18:57:00.996Z,10.43
2023-08-16T18:59:41.524Z,11.40
2023-08-16T19:02:09.513Z,10.82
2023-08-16T19:04:37.079Z,14.38
2023-08-16T19:07:05.581Z,9.50
2023-08-16T19:09:33.174Z,9.73
2023-08-16T19:12:01.092Z,10.35
2023-08-16T19:14:35.138Z,10.20
2023-08-16T19:17:04.834Z,9.73
2023-08-16T19:19:32.326Z,8.82
2023-08-16T19:22:05.673Z,10.88
2023-08-16T19:24:33.319Z,7.55
2023-08-16T19:27:01.269Z,11.60
2023-08-16T19:29:34.250Z,9.88
2023-08-16T19:32:02.124Z,10.52
2023-08-16T19:34:33.502Z,9.27
2023-08-16T19:37:06.234Z,8.30
2023-08-16T19:39:33.823Z,8.23
2023-08-16T19:42:01.846Z,10.32
2023-08-16T19:44:30.759Z,8.98
2023-08-16T19:47:03.516Z,11.05
2023-08-16T19:49:30.956Z,10.40
2023-08-16T19:51:59.136Z,7.70
2023-08-16T19:54:26.996Z,8.98
2023-08-16T19:56:55.045Z,8.23
2023-08-16T19:59:22.624Z,11.48
2023-08-16T20:01:56.142Z,7.85
2023-08-16T20:04:23.699Z,8.05
2023-08-16T20:06:57.301Z,8.40
2023-08-16T20:09:24.834Z,8.02
2023-08-16T20:11:52.509Z,10.65
2023-08-16T20:14:20.056Z,9.27
2023-08-16T20:16:53.561Z,8.45
2023-08-16T20:19:21.093Z,8.50
2023-08-16T20:21:48.992Z,7.45
2023-08-16T20:24:16.775Z,9.88
2023-08-16T20:26:44.733Z,7.65
2023-08-16T20:29:12.092Z,9.38
2023-08-16T20:31:40.133Z,9.13
2023-08-16T20:34:17.527Z,6.97
2023-08-16T20:36:45.566Z,7.82
2023-08-16T20:39:13.130Z,7.35
2023-08-16T20:41:45.872Z,8.27
2023-08-16T20:44:13.554Z,6.60
2023-08-16T20:46:45.179Z,8.57
2023-08-16T20:49:18.287Z,8.48
2023-08-16T20:51:50.512Z,8.50
2023-08-16T20:54:18.342Z,7.85
2023-08-16T20:56:46.165Z,7.47
2023-08-16T20:59:13.652Z,8.23
2023-08-16T21:01:43.919Z,8.18
2023-08-16T21:04:18.108Z,11.15
2023-08-16T21:06:45.915Z,9.25
2023-08-16T21:09:13.450Z,9.82
2023-08-16T21:11:41.399Z,5.35
2023-08-16T21:14:08.761Z,11.27
2023-08-16T21:16:36.645Z,7.72
2023-08-16T21:19:04.386Z,8.82
2023-08-16T21:21:33.847Z,7.32
2023-08-16T21:24:01.360Z,6.10
2023-08-16T21:26:29.298Z,4.53
2023-08-16T21:28:57.173Z,3.78
2023-08-16T21:31:25.801Z,5.03
2023-08-16T21:33:53.565Z,4.38
2023-08-16T21:36:24.162Z,4.10
2023-08-16T21:38:54.161Z,4.55
2023-08-16T21:41:21.999Z,3.72
2023-08-16T21:43:49.469Z,4.65
2023-08-16T21:46:18.497Z,2.92
2023-08-16T21:48:46.047Z,5.60
2023-08-16T21:51:14.048Z,3.28
2023-08-16T21:53:41.384Z,3.00
2023-08-16T21:56:14.442Z,6.03
2023-08-16T21:58:42.117Z,3.67
2023-08-16T22:01:10.085Z,3.95
2023-08-16T22:03:37.790Z,3.55
2023-08-16T22:06:05.731Z,6.90
2023-08-16T22:08:33.186Z,3.55
2023-08-16T22:11:01.575Z,2.85
2023-08-16T22:13:34.167Z,3.72
2023-08-16T22:16:02.097Z,3.88
2023-08-16T22:18:29.631Z,5.45
2023-08-16T22:21:03.037Z,4.90
2023-08-16T22:23:32.128Z,3.38
2023-08-16T22:26:00.084Z,4.18
2023-08-16T22:28:27.665Z,3.30
2023-08-16T22:30:56.794Z,4.18
2023-08-16T22:33:24.227Z,4.57
2023-08-16T22:35:52.743Z,4.07
2023-08-16T22:38:20.209Z,3.60
2023-08-16T22:40:48.039Z,5.43
2023-08-16T22:43:15.568Z,4.80
2023-08-16T22:45:43.434Z,3.97
2023-08-16T22:48:12.371Z,4.05
2023-08-16T22:50:40.239Z,4.47
2023-08-16T22:53:07.752Z,4.95
2023-08-16T22:55:35.512Z,4.95
2023-08-16T22:58:02.977Z,5.70
2023-08-16T23:00:30.854Z,4.90
2023-08-16T23:02:58.432Z,6.90
2023-08-16T23:05:27.631Z,3.20
2023-08-16T23:07:55.011Z,3.42
2023-08-16T23:10:22.912Z,3.97
2023-08-16T23:12:50.270Z,3.55
2023-08-16T23:15:18.359Z,3.28
2023-08-16T23:17:45.834Z,4.72
2023-08-16T23:20:13.714Z,4.32
2023-08-16T23:22:42.565Z,4.97
2023-08-16T23:25:11.092Z,3.45
2023-08-16T23:27:38.803Z,3.40
2023-08-16T23:30:07.720Z,4.68
2023-08-16T23:32:35.641Z,5.63
2023-08-16T23:35:03.504Z,5.75
2023-08-16T23:37:32.193Z,3.70
2023-08-16T23:40:01.055Z,4.82
2023-08-16T23:42:28.870Z,4.97
2023-08-16T23:44:56.365Z,6.38
2023-08-16T23:47:24.640Z,4.68
2023-08-16T23:49:52.426Z,5.60
2023-08-16T23:52:20.223Z,6.15
2023-08-16T23:54:47.608Z,4.25
2023-08-16T23:57:21.051Z,5.45
2023-08-16T23:59:48.362Z,6.10
